sensor_id;sensor_type;location;lat;lon;timestamp;temperature;humidity
26641;DHT22;14269;47.358;0.724;2023-03-01T00:01:45;5.0;46.0
26641;DHT22;14269;47.358;0.724;2023-03-01T00:04:17;5.0;45.0
26641;DHT22;14269;47.358;0.724;2023-03-01T00:06:48;5.0;46.0
26641;DHT22;14269;47.358;0.724;2023-03-01T00:09:20;5.0;46.0
26641;DHT22;14269;47.358;0.724;2023-03-01T00:11:52;5.0;46.0
26641;DHT22;14269;47.358;0.724;2023-03-01T00:14:23;5.0;46.0
26641;DHT22;14269;47.358;0.724;2023-03-01T00:16:55;5.0;45.0
26641;DHT22;14269;47.358;0.724;2023-03-01T00:19:27;5.0;45.0
26641;DHT22;14269;47.358;0.724;2023-03-01T00:21:58;5.0;45.0
26641;DHT22;14269;47.358;0.724;2023-03-01T00:24:30;5.0;45.0
26641;DHT22;14269;47.358;0.724;2023-03-01T00:27:02;5.0;45.0
26641;DHT22;14269;47.358;0.724;2023-03-01T00:29:33;5.0;46.0
26641;DHT22;14269;47.358;0.724;2023-03-01T00:32:05;5.0;46.0
26641;DHT22;14269;47.358;0.724;2023-03-01T00:34:37;5.0;47.0
26641;DHT22;14269;47.358;0.724;2023-03-01T00:37:08;5.0;47.0
26641;DHT22;14269;47.358;0.724;2023-03-01T00:39:40;5.0;47.0
26641;DHT22;14269;47.358;0.724;2023-03-01T00:42:12;5.0;47.0
26641;DHT22;14269;47.358;0.724;2023-03-01T00:44:43;5.0;46.0
26641;DHT22;14269;47.358;0.724;2023-03-01T00:47:15;5.0;46.0
26641;DHT22;14269;47.358;0.724;2023-03-01T00:49:46;5.0;46.0
26641;DHT22;14269;47.358;0.724;2023-03-01T00:52:18;5.0;47.0
26641;DHT22;14269;47.358;0.724;2023-03-01T00:54:52;5.0;46.0
26641;DHT22;14269;47.358;0.724;2023-03-01T00:57:32;5.0;46.0
26641;DHT22;14269;47.358;0.724;2023-03-01T01:00:14;5.0;46.0
26641;DHT22;14269;47.358;0.724;2023-03-01T01:02:45;5.0;46.0
26641;DHT22;14269;47.358;0.724;2023-03-01T01:05:20;5.0;46.0
26641;DHT22;14269;47.358;0.724;2023-03-01T01:07:58;5.0;46.0
26641;DHT22;14269;47.358;0.724;2023-03-01T01:10:30;5.0;47.0
26641;DHT22;14269;47.358;0.724;2023-03-01T01:13:02;5.0;47.0
26641;DHT22;14269;47.358;0.724;2023-03-01T01:15:33;5.0;46.0
26641;DHT22;14269;47.358;0.724;2023-03-01T01:18:05;5.0;46.0
26641;DHT22;14269;47.358;0.724;2023-03-01T01:20:37;5.0;47.0
26641;DHT22;14269;47.358;0.724;2023-03-01T01:23:08;5.0;47.0
26641;DHT22;14269;47.358;0.724;2023-03-01T01:25:40;5.0;47.0
26641;DHT22;14269;47.358;0.724;2023-03-01T01:28:11;5.0;47.0
26641;DHT22;14269;47.358;0.724;2023-03-01T01:30:43;5.0;47.0
26641;DHT22;14269;47.358;0.724;2023-03-01T01:33:15;5.0;47.0
26641;DHT22;14269;47.358;0.724;2023-03-01T01:35:46;5.0;47.0
26641;DHT22;14269;47.358;0.724;2023-03-01T01:38:18;5.0;47.0
26641;DHT22;14269;47.358;0.724;2023-03-01T01:40:51;5.0;47.0
26641;DHT22;14269;47.358;0.724;2023-03-01T01:43:34;4.0;48.0
26641;DHT22;14269;47.358;0.724;2023-03-01T01:46:20;4.0;48.0
26641;DHT22;14269;47.358;0.724;2023-03-01T01:48:57;4.0;48.0
26641;DHT22;14269;47.358;0.724;2023-03-01T01:51:40;4.0;48.0
26641;DHT22;14269;47.358;0.724;2023-03-01T01:54:21;4.0;49.0
26641;DHT22;14269;47.358;0.724;2023-03-01T01:57:03;4.0;49.0
26641;DHT22;14269;47.358;0.724;2023-03-01T01:59:45;4.0;49.0
26641;DHT22;14269;47.358;0.724;2023-03-01T02:02:24;4.0;49.0
26641;DHT22;14269;47.358;0.724;2023-03-01T02:05:05;4.0;49.0
26641;DHT22;14269;47.358;0.724;2023-03-01T02:07:48;4.0;49.0
26641;DHT22;14269;47.358;0.724;2023-03-01T02:10:19;4.0;50.0
26641;DHT22;14269;47.358;0.724;2023-03-01T02:13:03;4.0;50.0
26641;DHT22;14269;47.358;0.724;2023-03-01T02:15:44;4.0;50.0
26641;DHT22;14269;47.358;0.724;2023-03-01T02:18:25;4.0;50.0
26641;DHT22;14269;47.358;0.724;2023-03-01T02:21:05;4.0;50.0
26641;DHT22;14269;47.358;0.724;2023-03-01T02:23:48;4.0;50.0
26641;DHT22;14269;47.358;0.724;2023-03-01T02:26:23;4.0;50.0
26641;DHT22;14269;47.358;0.724;2023-03-01T02:32:10;4.0;50.0
26641;DHT22;14269;47.358;0.724;2023-03-01T02:34:45;4.0;50.0
26641;DHT22;14269;47.358;0.724;2023-03-01T02:37:20;4.0;51.0
26641;DHT22;14269;47.358;0.724;2023-03-01T02:40:02;4.0;51.0
26641;DHT22;14269;47.358;0.724;2023-03-01T02:42:45;4.0;51.0
26641;DHT22;14269;47.358;0.724;2023-03-01T02:45:23;3.0;52.0
26641;DHT22;14269;47.358;0.724;2023-03-01T02:47:54;3.0;53.0
26641;DHT22;14269;47.358;0.724;2023-03-01T02:50:47;3.0;53.0
26641;DHT22;14269;47.358;0.724;2023-03-01T02:53:33;3.0;53.0
26641;DHT22;14269;47.358;0.724;2023-03-01T02:56:12;3.0;52.0
26641;DHT22;14269;47.358;0.724;2023-03-01T02:58:51;3.0;52.0
26641;DHT22;14269;47.358;0.724;2023-03-01T03:01:22;3.0;53.0
26641;DHT22;14269;47.358;0.724;2023-03-01T03:03:54;3.0;53.0
26641;DHT22;14269;47.358;0.724;2023-03-01T03:06:25;3.0;53.0
26641;DHT22;14269;47.358;0.724;2023-03-01T03:08:57;3.0;53.0
26641;DHT22;14269;47.358;0.724;2023-03-01T03:11:29;3.0;54.0
26641;DHT22;14269;47.358;0.724;2023-03-01T03:14:01;3.0;54.0
26641;DHT22;14269;47.358;0.724;2023-03-01T03:16:32;3.0;54.0
26641;DHT22;14269;47.358;0.724;2023-03-01T03:19:05;3.0;54.0
26641;DHT22;14269;47.358;0.724;2023-03-01T03:21:36;3.0;54.0
26641;DHT22;14269;47.358;0.724;2023-03-01T03:24:07;3.0;53.0
26641;DHT22;14269;47.358;0.724;2023-03-01T03:26:39;3.0;54.0
26641;DHT22;14269;47.358;0.724;2023-03-01T03:29:10;3.0;54.0
26641;DHT22;14269;47.358;0.724;2023-03-01T03:31:42;3.0;54.0
26641;DHT22;14269;47.358;0.724;2023-03-01T03:34:17;3.0;53.0
26641;DHT22;14269;47.358;0.724;2023-03-01T03:36:56;3.0;53.0
26641;DHT22;14269;47.358;0.724;2023-03-01T03:39:37;3.0;53.0
26641;DHT22;14269;47.358;0.724;2023-03-01T03:42:10;3.0;54.0
26641;DHT22;14269;47.358;0.724;2023-03-01T03:44:40;3.0;54.0
26641;DHT22;14269;47.358;0.724;2023-03-01T03:47:12;3.0;53.0
26641;DHT22;14269;47.358;0.724;2023-03-01T03:49:44;3.0;53.0
26641;DHT22;14269;47.358;0.724;2023-03-01T03:52:15;3.0;53.0
26641;DHT22;14269;47.358;0.724;2023-03-01T03:54:47;3.0;53.0
26641;DHT22;14269;47.358;0.724;2023-03-01T03:57:19;3.0;53.0
26641;DHT22;14269;47.358;0.724;2023-03-01T03:59:50;3.0;54.0
26641;DHT22;14269;47.358;0.724;2023-03-01T04:02:22;3.0;54.0
26641;DHT22;14269;47.358;0.724;2023-03-01T04:04:53;3.0;54.0
26641;DHT22;14269;47.358;0.724;2023-03-01T04:07:25;3.0;53.0
26641;DHT22;14269;47.358;0.724;2023-03-01T04:09:57;3.0;53.0
26641;DHT22;14269;47.358;0.724;2023-03-01T04:12:29;3.0;53.0
26641;DHT22;14269;47.358;0.724;2023-03-01T04:15:00;3.0;53.0
26641;DHT22;14269;47.358;0.724;2023-03-01T04:17:32;2.0;53.0
26641;DHT22;14269;47.358;0.724;2023-03-01T04:20:06;2.0;54.0
26641;DHT22;14269;47.358;0.724;2023-03-01T04:22:46;2.0;54.0
26641;DHT22;14269;47.358;0.724;2023-03-01T04:25:27;2.0;54.0
26641;DHT22;14269;47.358;0.724;2023-03-01T04:27:59;2.0;54.0
26641;DHT22;14269;47.358;0.724;2023-03-01T04:30:35;2.0;54.0
26641;DHT22;14269;47.358;0.724;2023-03-01T04:33:12;2.0;54.0
26641;DHT22;14269;47.358;0.724;2023-03-01T04:35:44;2.0;54.0
26641;DHT22;14269;47.358;0.724;2023-03-01T04:38:16;2.0;54.0
26641;DHT22;14269;47.358;0.724;2023-03-01T04:40:47;2.0;53.0
26641;DHT22;14269;47.358;0.724;2023-03-01T04:43:19;2.0;53.0
26641;DHT22;14269;47.358;0.724;2023-03-01T04:45:50;2.0;54.0
26641;DHT22;14269;47.358;0.724;2023-03-01T04:48:22;2.0;53.0
26641;DHT22;14269;47.358;0.724;2023-03-01T04:50:53;2.0;53.0
26641;DHT22;14269;47.358;0.724;2023-03-01T04:53:25;2.0;53.0
26641;DHT22;14269;47.358;0.724;2023-03-01T04:55:57;2.0;53.0
26641;DHT22;14269;47.358;0.724;2023-03-01T04:58:28;2.0;54.0
26641;DHT22;14269;47.358;0.724;2023-03-01T05:01:00;2.0;54.0
26641;DHT22;14269;47.358;0.724;2023-03-01T05:03:32;2.0;53.0
26641;DHT22;14269;47.358;0.724;2023-03-01T05:06:04;2.0;54.0
26641;DHT22;14269;47.358;0.724;2023-03-01T05:08:37;2.0;54.0
26641;DHT22;14269;47.358;0.724;2023-03-01T05:11:17;2.0;54.0
26641;DHT22;14269;47.358;0.724;2023-03-01T05:13:49;2.0;55.0
26641;DHT22;14269;47.358;0.724;2023-03-01T05:16:31;2.0;55.0
26641;DHT22;14269;47.358;0.724;2023-03-01T05:19:11;2.0;54.0
26641;DHT22;14269;47.358;0.724;2023-03-01T05:22:09;2.0;55.0
26641;DHT22;14269;47.358;0.724;2023-03-01T05:24:46;2.0;54.0
26641;DHT22;14269;47.358;0.724;2023-03-01T05:27:17;2.0;54.0
26641;DHT22;14269;47.358;0.724;2023-03-01T05:29:49;2.0;54.0
26641;DHT22;14269;47.358;0.724;2023-03-01T05:32:21;2.0;54.0
26641;DHT22;14269;47.358;0.724;2023-03-01T05:34:52;2.0;55.0
26641;DHT22;14269;47.358;0.724;2023-03-01T05:37:35;2.0;55.0
26641;DHT22;14269;47.358;0.724;2023-03-01T05:40:17;2.0;55.0
26641;DHT22;14269;47.358;0.724;2023-03-01T05:42:57;2.0;55.0
26641;DHT22;14269;47.358;0.724;2023-03-01T05:45:29;2.0;55.0
26641;DHT22;14269;47.358;0.724;2023-03-01T05:48:01;2.0;55.0
26641;DHT22;14269;47.358;0.724;2023-03-01T05:50:34;2.0;55.0
26641;DHT22;14269;47.358;0.724;2023-03-01T05:53:16;2.0;55.0
26641;DHT22;14269;47.358;0.724;2023-03-01T05:55:56;2.0;55.0
26641;DHT22;14269;47.358;0.724;2023-03-01T05:58:27;2.0;55.0
26641;DHT22;14269;47.358;0.724;2023-03-01T06:00:59;2.0;55.0
26641;DHT22;14269;47.358;0.724;2023-03-01T06:03:31;2.0;55.0
26641;DHT22;14269;47.358;0.724;2023-03-01T06:06:03;2.0;55.0
26641;DHT22;14269;47.358;0.724;2023-03-01T06:08:34;2.0;55.0
26641;DHT22;14269;47.358;0.724;2023-03-01T06:11:07;2.0;55.0
26641;DHT22;14269;47.358;0.724;2023-03-01T06:13:47;2.0;55.0
26641;DHT22;14269;47.358;0.724;2023-03-01T06:16:19;1.0;56.0
26641;DHT22;14269;47.358;0.724;2023-03-01T06:18:51;1.0;56.0
26641;DHT22;14269;47.358;0.724;2023-03-01T06:21:22;1.0;56.0
26641;DHT22;14269;47.358;0.724;2023-03-01T06:23:54;1.0;56.0
26641;DHT22;14269;47.358;0.724;2023-03-01T06:26:26;1.0;56.0
26641;DHT22;14269;47.358;0.724;2023-03-01T06:28:57;1.0;56.0
26641;DHT22;14269;47.358;0.724;2023-03-01T06:31:29;1.0;57.0
26641;DHT22;14269;47.358;0.724;2023-03-01T06:34:01;1.0;56.0
26641;DHT22;14269;47.358;0.724;2023-03-01T06:36:32;1.0;56.0
26641;DHT22;14269;47.358;0.724;2023-03-01T06:39:05;1.0;56.0
26641;DHT22;14269;47.358;0.724;2023-03-01T06:41:36;1.0;56.0
26641;DHT22;14269;47.358;0.724;2023-03-01T06:44:07;1.0;56.0
26641;DHT22;14269;47.358;0.724;2023-03-01T06:46:39;1.0;57.0
26641;DHT22;14269;47.358;0.724;2023-03-01T06:49:11;1.0;56.0
26641;DHT22;14269;47.358;0.724;2023-03-01T06:51:42;1.0;57.0
26641;DHT22;14269;47.358;0.724;2023-03-01T06:54:14;1.0;56.0
26641;DHT22;14269;47.358;0.724;2023-03-01T06:56:46;1.0;56.0
26641;DHT22;14269;47.358;0.724;2023-03-01T06:59:18;1.0;56.0
26641;DHT22;14269;47.358;0.724;2023-03-01T07:01:49;1.0;56.0
26641;DHT22;14269;47.358;0.724;2023-03-01T07:04:20;1.0;56.0
26641;DHT22;14269;47.358;0.724;2023-03-01T07:06:55;1.0;56.0
26641;DHT22;14269;47.358;0.724;2023-03-01T07:09:34;1.0;57.0
26641;DHT22;14269;47.358;0.724;2023-03-01T07:12:06;2.0;56.0
26641;DHT22;14269;47.358;0.724;2023-03-01T07:14:37;2.0;57.0
26641;DHT22;14269;47.358;0.724;2023-03-01T07:17:09;2.0;56.0
26641;DHT22;14269;47.358;0.724;2023-03-01T07:19:40;2.0;56.0
26641;DHT22;14269;47.358;0.724;2023-03-01T07:22:12;2.0;57.0
26641;DHT22;14269;47.358;0.724;2023-03-01T07:24:44;2.0;56.0
26641;DHT22;14269;47.358;0.724;2023-03-01T07:27:15;2.0;56.0
26641;DHT22;14269;47.358;0.724;2023-03-01T07:29:47;2.0;57.0
26641;DHT22;14269;47.358;0.724;2023-03-01T07:32:19;2.0;56.0
26641;DHT22;14269;47.358;0.724;2023-03-01T07:34:51;2.0;56.0
26641;DHT22;14269;47.358;0.724;2023-03-01T07:37:22;2.0;56.0
26641;DHT22;14269;47.358;0.724;2023-03-01T07:39:53;2.0;55.0
26641;DHT22;14269;47.358;0.724;2023-03-01T07:42:25;2.0;55.0
26641;DHT22;14269;47.358;0.724;2023-03-01T07:44:57;2.0;55.0
26641;DHT22;14269;47.358;0.724;2023-03-01T07:47:28;2.0;55.0
26641;DHT22;14269;47.358;0.724;2023-03-01T07:50:01;2.0;55.0
26641;DHT22;14269;47.358;0.724;2023-03-01T07:52:45;2.0;54.0
26641;DHT22;14269;47.358;0.724;2023-03-01T07:55:24;2.0;54.0
26641;DHT22;14269;47.358;0.724;2023-03-01T07:57:55;3.0;54.0
26641;DHT22;14269;47.358;0.724;2023-03-01T08:00:27;3.0;54.0
26641;DHT22;14269;47.358;0.724;2023-03-01T08:02:59;3.0;53.0
26641;DHT22;14269;47.358;0.724;2023-03-01T08:05:41;3.0;53.0
26641;DHT22;14269;47.358;0.724;2023-03-01T08:08:12;3.0;52.0
26641;DHT22;14269;47.358;0.724;2023-03-01T08:10:44;4.0;51.0
26641;DHT22;14269;47.358;0.724;2023-03-01T08:13:15;4.0;51.0
26641;DHT22;14269;47.358;0.724;2023-03-01T08:15:47;4.0;50.0
26641;DHT22;14269;47.358;0.724;2023-03-01T08:18:20;4.0;50.0
26641;DHT22;14269;47.358;0.724;2023-03-01T08:21:03;4.0;50.0
26641;DHT22;14269;47.358;0.724;2023-03-01T08:23:43;5.0;48.0
26641;DHT22;14269;47.358;0.724;2023-03-01T08:26:15;5.0;48.0
26641;DHT22;14269;47.358;0.724;2023-03-01T08:28:56;5.0;47.0
26641;DHT22;14269;47.358;0.724;2023-03-01T08:31:31;5.0;46.0
26641;DHT22;14269;47.358;0.724;2023-03-01T08:34:11;5.0;46.0
26641;DHT22;14269;47.358;0.724;2023-03-01T08:36:52;6.0;45.0
26641;DHT22;14269;47.358;0.724;2023-03-01T08:39:32;6.0;45.0
26641;DHT22;14269;47.358;0.724;2023-03-01T08:42:04;6.0;45.0
26641;DHT22;14269;47.358;0.724;2023-03-01T08:44:36;6.0;44.0
26641;DHT22;14269;47.358;0.724;2023-03-01T08:47:07;6.0;44.0
26641;DHT22;14269;47.358;0.724;2023-03-01T08:49:39;6.0;44.0
26641;DHT22;14269;47.358;0.724;2023-03-01T08:52:11;7.0;42.0
26641;DHT22;14269;47.358;0.724;2023-03-01T08:54:42;7.0;42.0
26641;DHT22;14269;47.358;0.724;2023-03-01T08:57:14;7.0;42.0
26641;DHT22;14269;47.358;0.724;2023-03-01T08:59:46;8.0;39.0
26641;DHT22;14269;47.358;0.724;2023-03-01T09:02:18;8.0;40.0
26641;DHT22;14269;47.358;0.724;2023-03-01T09:04:59;8.0;39.0
26641;DHT22;14269;47.358;0.724;2023-03-01T09:07:31;9.0;38.0
26641;DHT22;14269;47.358;0.724;2023-03-01T09:10:03;9.0;39.0
26641;DHT22;14269;47.358;0.724;2023-03-01T09:12:34;9.0;37.0
26641;DHT22;14269;47.358;0.724;2023-03-01T09:15:07;9.0;36.0
26641;DHT22;14269;47.358;0.724;2023-03-01T09:17:47;8.0;38.0
26641;DHT22;14269;47.358;0.724;2023-03-01T09:20:19;9.0;36.0
26641;DHT22;14269;47.358;0.724;2023-03-01T09:22:51;9.0;37.0
26641;DHT22;14269;47.358;0.724;2023-03-01T09:25:23;9.0;38.0
26641;DHT22;14269;47.358;0.724;2023-03-01T09:27:54;9.0;36.0
26641;DHT22;14269;47.358;0.724;2023-03-01T09:30:26;9.0;36.0
26641;DHT22;14269;47.358;0.724;2023-03-01T09:32:57;10.0;35.0
26641;DHT22;14269;47.358;0.724;2023-03-01T09:35:29;10.0;35.0
26641;DHT22;14269;47.358;0.724;2023-03-01T09:38:00;10.0;35.0
26641;DHT22;14269;47.358;0.724;2023-03-01T09:40:32;10.0;36.0
26641;DHT22;14269;47.358;0.724;2023-03-01T09:43:11;9.0;37.0
26641;DHT22;14269;47.358;0.724;2023-03-01T09:45:47;10.0;37.0
26641;DHT22;14269;47.358;0.724;2023-03-01T09:48:33;10.0;36.0
26641;DHT22;14269;47.358;0.724;2023-03-01T09:51:16;11.0;33.0
26641;DHT22;14269;47.358;0.724;2023-03-01T09:53:51;13.0;31.0
26641;DHT22;14269;47.358;0.724;2023-03-01T09:56:37;14.0;28.0
26641;DHT22;14269;47.358;0.724;2023-03-01T09:59:23;13.0;30.0
26641;DHT22;14269;47.358;0.724;2023-03-01T10:02:00;14.0;30.0
26641;DHT22;14269;47.358;0.724;2023-03-01T10:04:44;13.0;30.0
26641;DHT22;14269;47.358;0.724;2023-03-01T10:07:27;13.0;30.0
26641;DHT22;14269;47.358;0.724;2023-03-01T10:10:05;12.0;32.0
26641;DHT22;14269;47.358;0.724;2023-03-01T10:12:44;13.0;31.0
26641;DHT22;14269;47.358;0.724;2023-03-01T10:15:33;14.0;31.0
26641;DHT22;14269;47.358;0.724;2023-03-01T10:18:12;14.0;30.0
26641;DHT22;14269;47.358;0.724;2023-03-01T10:20:53;14.0;30.0
26641;DHT22;14269;47.358;0.724;2023-03-01T10:23:32;15.0;29.0
26641;DHT22;14269;47.358;0.724;2023-03-01T10:26:24;14.0;29.0
26641;DHT22;14269;47.358;0.724;2023-03-01T10:29:06;14.0;29.0
26641;DHT22;14269;47.358;0.724;2023-03-01T10:31:47;14.0;29.0
26641;DHT22;14269;47.358;0.724;2023-03-01T10:34:29;13.0;29.0
26641;DHT22;14269;47.358;0.724;2023-03-01T10:37:11;13.0;30.0
26641;DHT22;14269;47.358;0.724;2023-03-01T10:39:56;13.0;31.0
26641;DHT22;14269;47.358;0.724;2023-03-01T10:42:35;13.0;31.0
26641;DHT22;14269;47.358;0.724;2023-03-01T10:45:22;14.0;29.0
26641;DHT22;14269;47.358;0.724;2023-03-01T10:48:04;15.0;28.0
26641;DHT22;14269;47.358;0.724;2023-03-01T10:50:40;15.0;28.0
26641;DHT22;14269;47.358;0.724;2023-03-01T10:53:25;15.0;27.0
26641;DHT22;14269;47.358;0.724;2023-03-01T10:56:04;16.0;27.0
26641;DHT22;14269;47.358;0.724;2023-03-01T10:58:58;17.0;25.0
26641;DHT22;14269;47.358;0.724;2023-03-01T11:01:35;16.0;26.0
26641;DHT22;14269;47.358;0.724;2023-03-01T11:04:12;15.0;28.0
26641;DHT22;14269;47.358;0.724;2023-03-01T11:06:58;13.0;31.0
26641;DHT22;14269;47.358;0.724;2023-03-01T11:09:37;12.0;33.0
26641;DHT22;14269;47.358;0.724;2023-03-01T11:12:14;14.0;30.0
26641;DHT22;14269;47.358;0.724;2023-03-01T11:14:54;14.0;31.0
26641;DHT22;14269;47.358;0.724;2023-03-01T11:17:28;13.0;31.0
26641;DHT22;14269;47.358;0.724;2023-03-01T11:20:25;12.0;32.0
26641;DHT22;14269;47.358;0.724;2023-03-01T11:23:03;13.0;31.0
26641;DHT22;14269;47.358;0.724;2023-03-01T11:27:45;14.0;29.0
26641;DHT22;14269;47.358;0.724;2023-03-01T11:30:27;15.0;27.0
26641;DHT22;14269;47.358;0.724;2023-03-01T11:33:15;16.0;27.0
26641;DHT22;14269;47.358;0.724;2023-03-01T11:35:55;16.0;27.0
26641;DHT22;14269;47.358;0.724;2023-03-01T11:38:32;15.0;27.0
26641;DHT22;14269;47.358;0.724;2023-03-01T11:41:14;15.0;29.0
26641;DHT22;14269;47.358;0.724;2023-03-01T11:43:55;15.0;27.0
26641;DHT22;14269;47.358;0.724;2023-03-01T11:46:45;15.0;27.0
26641;DHT22;14269;47.358;0.724;2023-03-01T11:49:41;15.0;28.0
26641;DHT22;14269;47.358;0.724;2023-03-01T11:52:27;16.0;28.0
26641;DHT22;14269;47.358;0.724;2023-03-01T11:55:12;15.0;27.0
26641;DHT22;14269;47.358;0.724;2023-03-01T11:58:06;16.0;27.0
26641;DHT22;14269;47.358;0.724;2023-03-01T12:00:55;16.0;27.0
26641;DHT22;14269;47.358;0.724;2023-03-01T12:03:51;16.0;26.0
26641;DHT22;14269;47.358;0.724;2023-03-01T12:06:34;15.0;28.0
26641;DHT22;14269;47.358;0.724;2023-03-01T12:09:22;15.0;28.0
26641;DHT22;14269;47.358;0.724;2023-03-01T12:12:21;16.0;28.0
26641;DHT22;14269;47.358;0.724;2023-03-01T12:15:18;17.0;25.0
26641;DHT22;14269;47.358;0.724;2023-03-01T12:18:09;16.0;27.0
26641;DHT22;14269;47.358;0.724;2023-03-01T12:20:53;16.0;26.0
26641;DHT22;14269;47.358;0.724;2023-03-01T12:24:04;16.0;27.0
26641;DHT22;14269;47.358;0.724;2023-03-01T12:26:45;16.0;27.0
26641;DHT22;14269;47.358;0.724;2023-03-01T12:29:25;14.0;30.0
26641;DHT22;14269;47.358;0.724;2023-03-01T12:32:24;14.0;30.0
26641;DHT22;14269;47.358;0.724;2023-03-01T12:35:20;14.0;29.0
26641;DHT22;14269;47.358;0.724;2023-03-01T12:38:05;14.0;28.0
26641;DHT22;14269;47.358;0.724;2023-03-01T12:40:50;15.0;29.0
26641;DHT22;14269;47.358;0.724;2023-03-01T12:43:44;15.0;29.0
26641;DHT22;14269;47.358;0.724;2023-03-01T12:46:32;15.0;27.0
26641;DHT22;14269;47.358;0.724;2023-03-01T12:49:17;15.0;27.0
26641;DHT22;14269;47.358;0.724;2023-03-01T12:52:01;14.0;31.0
26641;DHT22;14269;47.358;0.724;2023-03-01T12:54:39;14.0;29.0
26641;DHT22;14269;47.358;0.724;2023-03-01T12:57:15;14.0;30.0
26641;DHT22;14269;47.358;0.724;2023-03-01T13:00:02;14.0;29.0
26641;DHT22;14269;47.358;0.724;2023-03-01T13:02:49;14.0;30.0
26641;DHT22;14269;47.358;0.724;2023-03-01T13:05:36;14.0;31.0
26641;DHT22;14269;47.358;0.724;2023-03-01T13:08:22;14.0;30.0
26641;DHT22;14269;47.358;0.724;2023-03-01T13:11:02;13.0;30.0
26641;DHT22;14269;47.358;0.724;2023-03-01T13:13:41;13.0;30.0
26641;DHT22;14269;47.358;0.724;2023-03-01T13:16:38;13.0;30.0
26641;DHT22;14269;47.358;0.724;2023-03-01T13:19:16;13.0;32.0
26641;DHT22;14269;47.358;0.724;2023-03-01T13:21:56;13.0;30.0
26641;DHT22;14269;47.358;0.724;2023-03-01T13:24:33;14.0;30.0
26641;DHT22;14269;47.358;0.724;2023-03-01T13:27:22;14.0;30.0
26641;DHT22;14269;47.358;0.724;2023-03-01T13:30:12;14.0;29.0
26641;DHT22;14269;47.358;0.724;2023-03-01T13:33:47;14.0;30.0
26641;DHT22;14269;47.358;0.724;2023-03-01T13:37:09;14.0;30.0
26641;DHT22;14269;47.358;0.724;2023-03-01T13:39:48;13.0;32.0
26641;DHT22;14269;47.358;0.724;2023-03-01T13:42:39;14.0;31.0
26641;DHT22;14269;47.358;0.724;2023-03-01T13:45:36;14.0;31.0
26641;DHT22;14269;47.358;0.724;2023-03-01T13:48:17;13.0;31.0
26641;DHT22;14269;47.358;0.724;2023-03-01T13:50:59;13.0;31.0
26641;DHT22;14269;47.358;0.724;2023-03-01T13:53:42;13.0;31.0
26641;DHT22;14269;47.358;0.724;2023-03-01T13:56:21;14.0;30.0
26641;DHT22;14269;47.358;0.724;2023-03-01T13:59:02;13.0;31.0
26641;DHT22;14269;47.358;0.724;2023-03-01T14:01:42;14.0;31.0
26641;DHT22;14269;47.358;0.724;2023-03-01T14:04:24;13.0;32.0
26641;DHT22;14269;47.358;0.724;2023-03-01T14:07:09;14.0;31.0
26641;DHT22;14269;47.358;0.724;2023-03-01T14:09:52;13.0;31.0
26641;DHT22;14269;47.358;0.724;2023-03-01T14:12:39;14.0;32.0
26641;DHT22;14269;47.358;0.724;2023-03-01T14:15:26;14.0;31.0
26641;DHT22;14269;47.358;0.724;2023-03-01T14:18:06;13.0;30.0
26641;DHT22;14269;47.358;0.724;2023-03-01T14:20:51;14.0;30.0
26641;DHT22;14269;47.358;0.724;2023-03-01T14:23:27;15.0;29.0
26641;DHT22;14269;47.358;0.724;2023-03-01T14:25:58;15.0;29.0
26641;DHT22;14269;47.358;0.724;2023-03-01T14:28:33;14.0;30.0
26641;DHT22;14269;47.358;0.724;2023-03-01T14:31:43;15.0;30.0
26641;DHT22;14269;47.358;0.724;2023-03-01T14:34:24;15.0;28.0
26641;DHT22;14269;47.358;0.724;2023-03-01T14:36:55;15.0;28.0
26641;DHT22;14269;47.358;0.724;2023-03-01T14:39:27;14.0;30.0
26641;DHT22;14269;47.358;0.724;2023-03-01T14:41:58;14.0;29.0
26641;DHT22;14269;47.358;0.724;2023-03-01T14:44:33;15.0;29.0
26641;DHT22;14269;47.358;0.724;2023-03-01T14:47:15;15.0;29.0
26641;DHT22;14269;47.358;0.724;2023-03-01T14:49:58;14.0;30.0
26641;DHT22;14269;47.358;0.724;2023-03-01T14:52:37;14.0;30.0
26641;DHT22;14269;47.358;0.724;2023-03-01T14:55:19;14.0;30.0
26641;DHT22;14269;47.358;0.724;2023-03-01T14:57:59;14.0;30.0
26641;DHT22;14269;47.358;0.724;2023-03-01T15:00:32;14.0;29.0
26641;DHT22;14269;47.358;0.724;2023-03-01T15:03:17;14.0;30.0
26641;DHT22;14269;47.358;0.724;2023-03-01T15:05:54;14.0;30.0
26641;DHT22;14269;47.358;0.724;2023-03-01T15:08:27;14.0;31.0
26641;DHT22;14269;47.358;0.724;2023-03-01T15:11:19;14.0;31.0
26641;DHT22;14269;47.358;0.724;2023-03-01T15:13:59;14.0;30.0
26641;DHT22;14269;47.358;0.724;2023-03-01T15:16:32;14.0;29.0
26641;DHT22;14269;47.358;0.724;2023-03-01T15:19:18;14.0;30.0
26641;DHT22;14269;47.358;0.724;2023-03-01T15:21:55;14.0;31.0
26641;DHT22;14269;47.358;0.724;2023-03-01T15:24:27;13.0;31.0
26641;DHT22;14269;47.358;0.724;2023-03-01T15:27:15;13.0;31.0
26641;DHT22;14269;47.358;0.724;2023-03-01T15:29:51;13.0;32.0
26641;DHT22;14269;47.358;0.724;2023-03-01T15:32:33;13.0;33.0
26641;DHT22;14269;47.358;0.724;2023-03-01T15:35:48;13.0;33.0
26641;DHT22;14269;47.358;0.724;2023-03-01T15:38:30;13.0;32.0
26641;DHT22;14269;47.358;0.724;2023-03-01T15:41:23;13.0;32.0
26641;DHT22;14269;47.358;0.724;2023-03-01T15:44:00;13.0;32.0
26641;DHT22;14269;47.358;0.724;2023-03-01T15:46:45;13.0;32.0
26641;DHT22;14269;47.358;0.724;2023-03-01T15:49:30;13.0;32.0
26641;DHT22;14269;47.358;0.724;2023-03-01T15:52:09;12.0;33.0
26641;DHT22;14269;47.358;0.724;2023-03-01T15:54:46;12.0;34.0
26641;DHT22;14269;47.358;0.724;2023-03-01T15:57:17;12.0;34.0
26641;DHT22;14269;47.358;0.724;2023-03-01T15:59:49;12.0;34.0
26641;DHT22;14269;47.358;0.724;2023-03-01T16:02:21;12.0;34.0
26641;DHT22;14269;47.358;0.724;2023-03-01T16:04:53;11.0;35.0
26641;DHT22;14269;47.358;0.724;2023-03-01T16:07:39;10.0;37.0
26641;DHT22;14269;47.358;0.724;2023-03-01T16:10:16;10.0;36.0
26641;DHT22;14269;47.358;0.724;2023-03-01T16:12:48;10.0;37.0
26641;DHT22;14269;47.358;0.724;2023-03-01T16:15:31;10.0;37.0
26641;DHT22;14269;47.358;0.724;2023-03-01T16:18:11;10.0;38.0
26641;DHT22;14269;47.358;0.724;2023-03-01T16:20:43;10.0;38.0
26641;DHT22;14269;47.358;0.724;2023-03-01T16:23:15;10.0;38.0
26641;DHT22;14269;47.358;0.724;2023-03-01T16:25:46;10.0;38.0
26641;DHT22;14269;47.358;0.724;2023-03-01T16:28:18;10.0;38.0
26641;DHT22;14269;47.358;0.724;2023-03-01T16:30:50;10.0;38.0
26641;DHT22;14269;47.358;0.724;2023-03-01T16:33:21;9.0;39.0
26641;DHT22;14269;47.358;0.724;2023-03-01T16:35:53;9.0;39.0
26641;DHT22;14269;47.358;0.724;2023-03-01T16:38:24;9.0;40.0
26641;DHT22;14269;47.358;0.724;2023-03-01T16:40:56;9.0;40.0
26641;DHT22;14269;47.358;0.724;2023-03-01T16:43:28;9.0;40.0
26641;DHT22;14269;47.358;0.724;2023-03-01T16:45:59;9.0;41.0
26641;DHT22;14269;47.358;0.724;2023-03-01T16:48:31;9.0;40.0
26641;DHT22;14269;47.358;0.724;2023-03-01T16:51:03;9.0;40.0
26641;DHT22;14269;47.358;0.724;2023-03-01T16:53:36;9.0;41.0
26641;DHT22;14269;47.358;0.724;2023-03-01T16:56:17;8.0;41.0
26641;DHT22;14269;47.358;0.724;2023-03-01T16:58:48;8.0;41.0
26641;DHT22;14269;47.358;0.724;2023-03-01T17:01:20;8.0;41.0
26641;DHT22;14269;47.358;0.724;2023-03-01T17:04:01;8.0;42.0
26641;DHT22;14269;47.358;0.724;2023-03-01T17:06:33;8.0;41.0
26641;DHT22;14269;47.358;0.724;2023-03-01T17:09:04;8.0;42.0
26641;DHT22;14269;47.358;0.724;2023-03-01T17:11:36;8.0;42.0
26641;DHT22;14269;47.358;0.724;2023-03-01T17:14:08;8.0;42.0
26641;DHT22;14269;47.358;0.724;2023-03-01T17:16:39;8.0;42.0
26641;DHT22;14269;47.358;0.724;2023-03-01T17:19:12;8.0;43.0
26641;DHT22;14269;47.358;0.724;2023-03-01T17:21:53;8.0;43.0
26641;DHT22;14269;47.358;0.724;2023-03-01T17:24:24;8.0;43.0